sensor_id;sensor_type;location;lat;lon;timestamp;pressure;altitude;pressure_sealevel;temperature;humidity
10606;BME280;5350;42.698;23.148;2022-11-20T00:00:07;92983.50;;;17.67;84.71
10606;BME280;5350;42.698;23.148;2022-11-20T00:02:34;92993.97;;;17.44;84.80
10606;BME280;5350;42.698;23.148;2022-11-20T00:05:01;92982.94;;;17.58;84.83
10606;BME280;5350;42.698;23.148;2022-11-20T00:07:28;92969.63;;;17.42;85.40
10606;BME280;5350;42.698;23.148;2022-11-20T00:09:54;92995.84;;;17.44;86.51
10606;BME280;5350;42.698;23.148;2022-11-20T00:12:21;92951.38;;;17.41;86.74
10606;BME280;5350;42.698;23.148;2022-11-20T00:14:48;92945.75;;;17.27;87.21
10606;BME280;5350;42.698;23.148;2022-11-20T00:17:16;92962.44;;;17.43;87.28
10606;BME280;5350;42.698;23.148;2022-11-20T00:19:43;92962.69;;;17.38;87.83
10606;BME280;5350;42.698;23.148;2022-11-20T00:22:09;92956.69;;;17.41;87.25
10606;BME280;5350;42.698;23.148;2022-11-20T00:24:36;92967.56;;;17.36;87.07
10606;BME280;5350;42.698;23.148;2022-11-20T00:27:03;92935.97;;;17.15;87.60
10606;BME280;5350;42.698;23.148;2022-11-20T00:29:29;92963.03;;;17.36;87.87
10606;BME280;5350;42.698;23.148;2022-11-20T00:31:56;92965.63;;;17.33;89.09
10606;BME280;5350;42.698;23.148;2022-11-20T00:34:24;92986.03;;;17.29;89.83
10606;BME280;5350;42.698;23.148;2022-11-20T00:36:51;92983.03;;;17.30;89.63
10606;BME280;5350;42.698;23.148;2022-11-20T00:39:18;92975.06;;;17.30;89.71
10606;BME280;5350;42.698;23.148;2022-11-20T00:41:44;92970.63;;;17.19;90.83
10606;BME280;5350;42.698;23.148;2022-11-20T00:44:11;92977.03;;;17.33;90.29
10606;BME280;5350;42.698;23.148;2022-11-20T00:46:38;92963.16;;;17.24;90.70
10606;BME280;5350;42.698;23.148;2022-11-20T00:49:04;92990.06;;;17.23;91.72
10606;BME280;5350;42.698;23.148;2022-11-20T00:51:32;92992.63;;;17.19;91.70
10606;BME280;5350;42.698;23.148;2022-11-20T00:53:59;92971.06;;;17.21;91.59
10606;BME280;5350;42.698;23.148;2022-11-20T00:56:27;92991.19;;;17.22;91.94
10606;BME280;5350;42.698;23.148;2022-11-20T00:58:54;92969.94;;;17.06;92.11
10606;BME280;5350;42.698;23.148;2022-11-20T01:01:23;92965.97;;;17.16;91.86
10606;BME280;5350;42.698;23.148;2022-11-20T01:03:52;92985.88;;;17.06;92.60
10606;BME280;5350;42.698;23.148;2022-11-20T01:06:21;92963.56;;;17.11;92.15
10606;BME280;5350;42.698;23.148;2022-11-20T01:08:50;92979.19;;;17.12;92.49
10606;BME280;5350;42.698;23.148;2022-11-20T01:11:18;92960.91;;;17.11;92.18
10606;BME280;5350;42.698;23.148;2022-11-20T01:13:46;92951.44;;;17.10;92.12
10606;BME280;5350;42.698;23.148;2022-11-20T01:16:15;92954.44;;;17.08;92.57
10606;BME280;5350;42.698;23.148;2022-11-20T01:18:43;92944.91;;;17.07;91.50
10606;BME280;5350;42.698;23.148;2022-11-20T01:21:11;92951.00;;;17.08;92.12
10606;BME280;5350;42.698;23.148;2022-11-20T01:23:40;92933.06;;;17.05;92.04
10606;BME280;5350;42.698;23.148;2022-11-20T01:26:10;92943.28;;;17.03;93.08
10606;BME280;5350;42.698;23.148;2022-11-20T01:28:38;92921.19;;;16.99;92.43
10606;BME280;5350;42.698;23.148;2022-11-20T01:31:11;92914.91;;;17.07;91.46
10606;BME280;5350;42.698;23.148;2022-11-20T01:33:39;92916.19;;;17.13;91.58
10606;BME280;5350;42.698;23.148;2022-11-20T01:36:07;92926.81;;;17.13;90.86
10606;BME280;5350;42.698;23.148;2022-11-20T01:38:34;92912.06;;;17.15;89.84
10606;BME280;5350;42.698;23.148;2022-11-20T01:41:01;92912.84;;;17.16;89.89
10606;BME280;5350;42.698;23.148;2022-11-20T01:43:29;92892.56;;;16.92;89.57
10606;BME280;5350;42.698;23.148;2022-11-20T01:46:02;92910.19;;;17.16;89.76
10606;BME280;5350;42.698;23.148;2022-11-20T01:48:33;92917.47;;;17.19;89.53
10606;BME280;5350;42.698;23.148;2022-11-20T01:51:03;92932.66;;;17.18;89.40
10606;BME280;5350;42.698;23.148;2022-11-20T01:53:32;92926.63;;;17.21;88.82
10606;BME280;5350;42.698;23.148;2022-11-20T01:56:03;92926.47;;;17.14;89.07
10606;BME280;5350;42.698;23.148;2022-11-20T01:58:35;92930.22;;;17.29;87.29
10606;BME280;5350;42.698;23.148;2022-11-20T02:01:04;92929.81;;;17.27;87.34
10606;BME280;5350;42.698;23.148;2022-11-20T02:03:31;92931.06;;;17.33;87.25
10606;BME280;5350;42.698;23.148;2022-11-20T02:06:04;92883.72;;;17.04;87.13
10606;BME280;5350;42.698;23.148;2022-11-20T02:08:33;92936.03;;;17.34;86.43
10606;BME280;5350;42.698;23.148;2022-11-20T02:11:00;92914.31;;;17.13;86.13
10606;BME280;5350;42.698;23.148;2022-11-20T02:13:27;92947.03;;;17.33;85.37
10606;BME280;5350;42.698;23.148;2022-11-20T02:16:14;92936.03;;;17.34;85.39
10606;BME280;5350;42.698;23.148;2022-11-20T02:18:42;92940.56;;;17.34;85.19
10606;BME280;5350;42.698;23.148;2022-11-20T02:21:21;92936.81;;;17.35;84.62
10606;BME280;5350;42.698;23.148;2022-11-20T02:24:10;92951.22;;;17.34;85.74
10606;BME280;5350;42.698;23.148;2022-11-20T02:26:42;92948.72;;;17.25;86.12
10606;BME280;5350;42.698;23.148;2022-11-20T02:29:11;92945.41;;;17.28;85.99
10606;BME280;5350;42.698;23.148;2022-11-20T02:31:41;92946.00;;;17.22;86.11
10606;BME280;5350;42.698;23.148;2022-11-20T02:34:08;92867.00;;;16.68;86.20
10606;BME280;5350;42.698;23.148;2022-11-20T02:36:36;92945.69;;;17.08;86.81
10606;BME280;5350;42.698;23.148;2022-11-20T02:39:05;92988.09;;;17.20;87.07
10606;BME280;5350;42.698;23.148;2022-11-20T02:41:34;92965.31;;;17.19;86.96
10606;BME280;5350;42.698;23.148;2022-11-20T02:44:02;92951.44;;;17.10;86.73
10606;BME280;5350;42.698;23.148;2022-11-20T02:46:30;92967.63;;;17.20;87.26
10606;BME280;5350;42.698;23.148;2022-11-20T02:48:57;92966.66;;;17.13;87.97
10606;BME280;5350;42.698;23.148;2022-11-20T02:51:24;92967.44;;;17.13;87.77
10606;BME280;5350;42.698;23.148;2022-11-20T02:53:51;92962.91;;;17.14;88.52
10606;BME280;5350;42.698;23.148;2022-11-20T02:56:18;92962.31;;;17.05;88.28
10606;BME280;5350;42.698;23.148;2022-11-20T02:58:46;92947.22;;;17.09;88.89
10606;BME280;5350;42.698;23.148;2022-11-20T03:01:13;92977.13;;;17.06;89.75
10606;BME280;5350;42.698;23.148;2022-11-20T03:03:40;92959.91;;;17.00;89.64
10606;BME280;5350;42.698;23.148;2022-11-20T03:06:07;92984.56;;;17.00;90.01
10606;BME280;5350;42.698;23.148;2022-11-20T03:08:34;92919.66;;;16.82;90.38
10606;BME280;5350;42.698;23.148;2022-11-20T03:11:06;92978.25;;;16.89;91.32
10606;BME280;5350;42.698;23.148;2022-11-20T03:13:33;92988.19;;;16.92;91.75
10606;BME280;5350;42.698;23.148;2022-11-20T03:16:07;92988.03;;;16.85;92.20
10606;BME280;5350;42.698;23.148;2022-11-20T03:18:34;92978.06;;;16.82;91.61
10606;BME280;5350;42.698;23.148;2022-11-20T03:21:01;92962.56;;;16.84;92.07
10606;BME280;5350;42.698;23.148;2022-11-20T03:23:30;92968.41;;;16.74;93.14
10606;BME280;5350;42.698;23.148;2022-11-20T03:26:07;92965.22;;;16.68;93.78
10606;BME280;5350;42.698;23.148;2022-11-20T03:28:34;92959.94;;;16.68;94.13
10606;BME280;5350;42.698;23.148;2022-11-20T03:31:06;92985.63;;;16.64;94.47
10606;BME280;5350;42.698;23.148;2022-11-20T03:33:33;92968.56;;;16.65;94.23
10606;BME280;5350;42.698;23.148;2022-11-20T03:36:01;92969.94;;;16.59;94.02
10606;BME280;5350;42.698;23.148;2022-11-20T03:38:29;92962.03;;;16.63;93.58
10606;BME280;5350;42.698;23.148;2022-11-20T03:40:58;92950.84;;;16.54;93.85
10606;BME280;5350;42.698;23.148;2022-11-20T03:43:25;92950.25;;;16.60;93.95
10606;BME280;5350;42.698;23.148;2022-11-20T03:45:52;92954.78;;;16.60;93.63
10606;BME280;5350;42.698;23.148;2022-11-20T03:48:20;92916.66;;;16.52;93.53
10606;BME280;5350;42.698;23.148;2022-11-20T03:50:47;92935.84;;;16.34;93.06
10606;BME280;5350;42.698;23.148;2022-11-20T03:53:14;92960.75;;;16.57;93.37
10606;BME280;5350;42.698;23.148;2022-11-20T03:55:42;92965.13;;;16.49;94.11
10606;BME280;5350;42.698;23.148;2022-11-20T03:58:09;92971.28;;;16.53;93.88
10606;BME280;5350;42.698;23.148;2022-11-20T04:00:36;92960.59;;;16.50;94.29
10606;BME280;5350;42.698;23.148;2022-11-20T04:03:03;92964.44;;;16.52;94.03
10606;BME280;5350;42.698;23.148;2022-11-20T04:05:34;92965.44;;;16.48;94.91
10606;BME280;5350;42.698;23.148;2022-11-20T04:08:01;92953.50;;;16.42;95.16
10606;BME280;5350;42.698;23.148;2022-11-20T04:10:27;92940.50;;;16.37;95.63
10606;BME280;5350;42.698;23.148;2022-11-20T04:12:54;92928.25;;;16.32;95.79
10606;BME280;5350;42.698;23.148;2022-11-20T04:15:21;92920.72;;;16.34;94.65
10606;BME280;5350;42.698;23.148;2022-11-20T04:17:50;92924.56;;;16.37;94.51
10606;BME280;5350;42.698;23.148;2022-11-20T04:20:16;92934.34;;;16.33;95.17
10606;BME280;5350;42.698;23.148;2022-11-20T04:22:45;92921.16;;;16.36;93.45
10606;BME280;5350;42.698;23.148;2022-11-20T04:25:11;92933.06;;;16.42;92.98
10606;BME280;5350;42.698;23.148;2022-11-20T04:27:38;92910.09;;;16.34;93.04
10606;BME280;5350;42.698;23.148;2022-11-20T04:30:06;92949.84;;;16.46;93.05
10606;BME280;5350;42.698;23.148;2022-11-20T04:32:33;92958.81;;;16.42;93.14
10606;BME280;5350;42.698;23.148;2022-11-20T04:34:59;92916.63;;;16.37;92.85
10606;BME280;5350;42.698;23.148;2022-11-20T04:37:26;92919.13;;;16.45;92.51
10606;BME280;5350;42.698;23.148;2022-11-20T04:39:54;92898.69;;;16.18;92.88
10606;BME280;5350;42.698;23.148;2022-11-20T04:42:21;92943.59;;;16.39;94.25
10606;BME280;5350;42.698;23.148;2022-11-20T04:44:57;92931.34;;;16.34;95.12
10606;BME280;5350;42.698;23.148;2022-11-20T04:47:24;92939.09;;;16.27;96.54
10606;BME280;5350;42.698;23.148;2022-11-20T04:49:50;92942.88;;;16.26;97.18
10606;BME280;5350;42.698;23.148;2022-11-20T04:52:18;92947.66;;;16.21;97.74
10606;BME280;5350;42.698;23.148;2022-11-20T04:54:44;92933.28;;;16.22;98.04
10606;BME280;5350;42.698;23.148;2022-11-20T04:57:14;92950.22;;;16.17;98.97
10606;BME280;5350;42.698;23.148;2022-11-20T04:59:41;92908.50;;;16.02;100.00
10606;BME280;5350;42.698;23.148;2022-11-20T05:02:08;92947.63;;;16.05;100.00
10606;BME280;5350;42.698;23.148;2022-11-20T05:04:35;92943.44;;;16.04;100.00
10606;BME280;5350;42.698;23.148;2022-11-20T05:07:02;92915.16;;;15.96;100.00
10606;BME280;5350;42.698;23.148;2022-11-20T05:09:29;92911.91;;;15.87;100.00
10606;BME280;5350;42.698;23.148;2022-11-20T05:11:56;92923.72;;;15.89;100.00
10606;BME280;5350;42.698;23.148;2022-11-20T05:14:24;92936.19;;;15.89;100.00
10606;BME280;5350;42.698;23.148;2022-11-20T05:16:51;92882.84;;;15.51;100.00
10606;BME280;5350;42.698;23.148;2022-11-20T05:19:17;92916.47;;;15.74;100.00
10606;BME280;5350;42.698;23.148;2022-11-20T05:21:44;92919.19;;;15.50;100.00
10606;BME280;5350;42.698;23.148;2022-11-20T05:24:11;92946.28;;;15.71;100.00
10606;BME280;5350;42.698;23.148;2022-11-20T05:26:38;92929.44;;;15.64;100.00
10606;BME280;5350;42.698;23.148;2022-11-20T05:29:05;92923.69;;;15.62;100.00
10606;BME280;5350;42.698;23.148;2022-11-20T05:31:33;92921.28;;;15.57;100.00
10606;BME280;5350;42.698;23.148;2022-11-20T05:33:59;92913.22;;;15.53;100.00
10606;BME280;5350;42.698;23.148;2022-11-20T05:36:26;92939.50;;;15.46;100.00
10606;BME280;5350;42.698;23.148;2022-11-20T05:38:53;92927.81;;;15.35;100.00
10606;BME280;5350;42.698;23.148;2022-11-20T05:41:20;92926.78;;;15.40;100.00
10606;BME280;5350;42.698;23.148;2022-11-20T05:43:48;92928.34;;;15.41;100.00
10606;BME280;5350;42.698;23.148;2022-11-20T05:46:17;92919.75;;;15.44;100.00
10606;BME280;5350;42.698;23.148;2022-11-20T05:48:45;92926.94;;;15.43;100.00
10606;BME280;5350;42.698;23.148;2022-11-20T05:51:15;92917.56;;;15.46;100.00
10606;BME280;5350;42.698;23.148;2022-11-20T05:53:42;92931.25;;;15.48;100.00
10606;BME280;5350;42.698;23.148;2022-11-20T05:56:11;92940.28;;;15.47;100.00
10606;BME280;5350;42.698;23.148;2022-11-20T05:58:38;92938.59;;;15.54;100.00
10606;BME280;5350;42.698;23.148;2022-11-20T06:01:07;92949.66;;;15.56;100.00
10606;BME280;5350;42.698;23.148;2022-11-20T06:03:34;92943.34;;;15.61;100.00
10606;BME280;5350;42.698;23.148;2022-11-20T06:06:03;92942.28;;;15.50;100.00
10606;BME280;5350;42.698;23.148;2022-11-20T06:08:31;92957.47;;;15.65;100.00
10606;BME280;5350;42.698;23.148;2022-11-20T06:10:58;92959.91;;;15.70;100.00
10606;BME280;5350;42.698;23.148;2022-11-20T06:13:24;92942.78;;;15.67;100.00
10606;BME280;5350;42.698;23.148;2022-11-20T06:15:52;92964.63;;;15.76;100.00
10606;BME280;5350;42.698;23.148;2022-11-20T06:18:19;92975.69;;;15.78;100.00
10606;BME280;5350;42.698;23.148;2022-11-20T06:20:47;92983.53;;;15.75;100.00
10606;BME280;5350;42.698;23.148;2022-11-20T06:23:15;92955.25;;;15.67;100.00
10606;BME280;5350;42.698;23.148;2022-11-20T06:25:42;92969.38;;;15.71;100.00
10606;BME280;5350;42.698;23.148;2022-11-20T06:28:09;92976.69;;;15.74;100.00
10606;BME280;5350;42.698;23.148;2022-11-20T06:30:36;92977.31;;;15.83;100.00
10606;BME280;5350;42.698;23.148;2022-11-20T06:33:03;92968.09;;;15.92;100.00
10606;BME280;5350;42.698;23.148;2022-11-20T06:35:30;92971.63;;;15.96;100.00
10606;BME280;5350;42.698;23.148;2022-11-20T06:37:56;92950.63;;;16.04;100.00
10606;BME280;5350;42.698;23.148;2022-11-20T06:40:25;92979.66;;;16.12;100.00
10606;BME280;5350;42.698;23.148;2022-11-20T06:42:53;92991.78;;;16.13;100.00
10606;BME280;5350;42.698;23.148;2022-11-20T06:45:20;92995.09;;;16.22;100.00
10606;BME280;5350;42.698;23.148;2022-11-20T06:47:47;92988.91;;;16.18;100.00
10606;BME280;5350;42.698;23.148;2022-11-20T06:50:13;93001.59;;;16.25;100.00
10606;BME280;5350;42.698;23.148;2022-11-20T06:52:40;93006.03;;;16.21;100.00
10606;BME280;5350;42.698;23.148;2022-11-20T06:55:07;92985.28;;;16.11;100.00
10606;BME280;5350;42.698;23.148;2022-11-20T06:57:35;92990.13;;;16.21;100.00
10606;BME280;5350;42.698;23.148;2022-11-20T07:00:03;92989.00;;;16.22;100.00
10606;BME280;5350;42.698;23.148;2022-11-20T07:02:30;92991.78;;;16.13;100.00
10606;BME280;5350;42.698;23.148;2022-11-20T07:04:56;92981.31;;;16.05;100.00
10606;BME280;5350;42.698;23.148;2022-11-20T07:07:23;92987.03;;;15.91;100.00
10606;BME280;5350;42.698;23.148;2022-11-20T07:09:50;92989.91;;;15.86;100.00
10606;BME280;5350;42.698;23.148;2022-11-20T07:12:16;92986.63;;;15.77;100.00
10606;BME280;5350;42.698;23.148;2022-11-20T07:14:45;93010.81;;;15.75;100.00
10606;BME280;5350;42.698;23.148;2022-11-20T07:17:11;92991.63;;;15.66;100.00
10606;BME280;5350;42.698;23.148;2022-11-20T07:19:38;92999.44;;;15.63;100.00
10606;BME280;5350;42.698;23.148;2022-11-20T07:22:05;93031.06;;;15.56;100.00
10606;BME280;5350;42.698;23.148;2022-11-20T07:24:32;93005.31;;;15.56;100.00
10606;BME280;5350;42.698;23.148;2022-11-20T07:26:58;92988.22;;;15.54;100.00
10606;BME280;5350;42.698;23.148;2022-11-20T07:29:25;92987.53;;;15.57;100.00
10606;BME280;5350;42.698;23.148;2022-11-20T07:31:53;93015.16;;;15.56;100.00
10606;BME280;5350;42.698;23.148;2022-11-20T07:34:20;92988.88;;;15.51;100.00
10606;BME280;5350;42.698;23.148;2022-11-20T07:36:47;93003.69;;;15.52;100.00
10606;BME280;5350;42.698;23.148;2022-11-20T07:39:14;92989.88;;;15.46;100.00
10606;BME280;5350;42.698;23.148;2022-11-20T07:41:41;92997.34;;;15.56;100.00
10606;BME280;5350;42.698;23.148;2022-11-20T07:44:07;92998.81;;;15.54;100.00
10606;BME280;5350;42.698;23.148;2022-11-20T07:46:34;92997.66;;;15.67;100.00
10606;BME280;5350;42.698;23.148;2022-11-20T07:49:02;93006.06;;;15.69;100.00
10606;BME280;5350;42.698;23.148;2022-11-20T07:51:29;93004.63;;;15.71;100.00
10606;BME280;5350;42.698;23.148;2022-11-20T07:53:56;93013.88;;;15.77;100.00
10606;BME280;5350;42.698;23.148;2022-11-20T07:56:23;93007.41;;;15.75;100.00
10606;BME280;5350;42.698;23.148;2022-11-20T07:58:50;93022.50;;;15.86;100.00
10606;BME280;5350;42.698;23.148;2022-11-20T08:01:16;93007.84;;;15.77;100.00
10606;BME280;5350;42.698;23.148;2022-11-20T08:03:43;93024.03;;;15.87;100.00
10606;BME280;5350;42.698;23.148;2022-11-20T08:06:11;93008.03;;;15.84;100.00
10606;BME280;5350;42.698;23.148;2022-11-20T08:08:38;93029.91;;;15.81;100.00
10606;BME280;5350;42.698;23.148;2022-11-20T08:11:06;93022.16;;;15.88;100.00
10606;BME280;5350;42.698;23.148;2022-11-20T08:13:50;93014.41;;;15.95;100.00
10606;BME280;5350;42.698;23.148;2022-11-20T08:16:34;93017.97;;;15.87;100.00
10606;BME280;5350;42.698;23.148;2022-11-20T08:19:01;93026.81;;;15.91;100.00
10606;BME280;5350;42.698;23.148;2022-11-20T08:21:29;93017.84;;;15.83;100.00
10606;BME280;5350;42.698;23.148;2022-11-20T08:23:56;93033.31;;;15.81;100.00
10606;BME280;5350;42.698;23.148;2022-11-20T08:26:23;93021.78;;;15.62;100.00
10606;BME280;5350;42.698;23.148;2022-11-20T08:28:53;93038.31;;;15.71;100.00
10606;BME280;5350;42.698;23.148;2022-11-20T08:31:20;93030.81;;;15.37;100.00
10606;BME280;5350;42.698;23.148;2022-11-20T08:33:47;93048.06;;;15.43;100.00
10606;BME280;5350;42.698;23.148;2022-11-20T08:36:14;93046.72;;;15.37;100.00
10606;BME280;5350;42.698;23.148;2022-11-20T08:38:46;93044.50;;;15.39;100.00
10606;BME280;5350;42.698;23.148;2022-11-20T08:41:13;93059.19;;;15.36;100.00
10606;BME280;5350;42.698;23.148;2022-11-20T08:43:55;93046.38;;;15.38;100.00
10606;BME280;5350;42.698;23.148;2022-11-20T08:46:23;93040.31;;;15.01;100.00
10606;BME280;5350;42.698;23.148;2022-11-20T08:48:50;93066.44;;;15.03;100.00
10606;BME280;5350;42.698;23.148;2022-11-20T08:51:18;93063.47;;;15.04;100.00
10606;BME280;5350;42.698;23.148;2022-11-20T08:53:47;93069.28;;;14.98;100.00
10606;BME280;5350;42.698;23.148;2022-11-20T08:56:15;93069.19;;;14.94;100.00
10606;BME280;5350;42.698;23.148;2022-11-20T08:58:42;93076.50;;;14.97;100.00
10606;BME280;5350;42.698;23.148;2022-11-20T09:01:09;93070.63;;;14.92;100.00
10606;BME280;5350;42.698;23.148;2022-11-20T09:03:36;93078.13;;;14.90;100.00
10606;BME280;5350;42.698;23.148;2022-11-20T09:06:06;93089.94;;;14.92;100.00
10606;BME280;5350;42.698;23.148;2022-11-20T09:08:33;93092.47;;;14.89;100.00
10606;BME280;5350;42.698;23.148;2022-11-20T09:11:02;93085.06;;;14.82;100.00
10606;BME280;5350;42.698;23.148;2022-11-20T09:13:32;93074.03;;;14.80;100.00
10606;BME280;5350;42.698;23.148;2022-11-20T09:16:00;93048.84;;;14.62;100.00
10606;BME280;5350;42.698;23.148;2022-11-20T09:18:28;93079.06;;;14.73;100.00
10606;BME280;5350;42.698;23.148;2022-11-20T09:20:57;93073.25;;;14.80;100.00
10606;BME280;5350;42.698;23.148;2022-11-20T09:23:24;93077.44;;;14.81;100.00
10606;BME280;5350;42.698;23.148;2022-11-20T09:25:51;93079.22;;;14.89;100.00
10606;BME280;5350;42.698;23.148;2022-11-20T09:28:22;93070.94;;;14.90;100.00
10606;BME280;5350;42.698;23.148;2022-11-20T09:30:48;93056.63;;;14.91;100.00
10606;BME280;5350;42.698;23.148;2022-11-20T09:33:15;93036.53;;;14.90;100.00
10606;BME280;5350;42.698;23.148;2022-11-20T09:35:42;93037.16;;;14.87;100.00
10606;BME280;5350;42.698;23.148;2022-11-20T09:38:09;93035.22;;;14.96;100.00
10606;BME280;5350;42.698;23.148;2022-11-20T09:40:40;93007.28;;;14.87;100.00
10606;BME280;5350;42.698;23.148;2022-11-20T09:43:12;92995.69;;;14.67;100.00
10606;BME280;5350;42.698;23.148;2022-11-20T09:45:53;92999.44;;;14.66;100.00
10606;BME280;5350;42.698;23.148;2022-11-20T09:48:33;93018.88;;;14.94;100.00
10606;BME280;5350;42.698;23.148;2022-11-20T09:51:07;93008.97;;;14.91;100.00
10606;BME280;5350;42.698;23.148;2022-11-20T09:53:48;93005.44;;;14.99;100.00
10606;BME280;5350;42.698;23.148;2022-11-20T09:56:19;93007.84;;;15.04;100.00
10606;BME280;5350;42.698;23.148;2022-11-20T09:58:49;93006.53;;;15.10;100.00
10606;BME280;5350;42.698;23.148;2022-11-20T10:01:20;92999.91;;;15.16;100.00
10606;BME280;5350;42.698;23.148;2022-11-20T10:03:55;92992.63;;;15.13;100.00
10606;BME280;5350;42.698;23.148;2022-11-20T10:06:29;93010.28;;;15.21;100.00
10606;BME280;5350;42.698;23.148;2022-11-20T10:09:03;93004.00;;;15.26;100.00
10606;BME280;5350;42.698;23.148;2022-11-20T10:11:39;92998.81;;;15.30;100.00
10606;BME280;5350;42.698;23.148;2022-11-20T10:14:19;92998.16;;;15.33;100.00
10606;BME280;5350;42.698;23.148;2022-11-20T10:16:57;92995.16;;;15.34;100.00
10606;BME280;5350;42.698;23.148;2022-11-20T10:19:46;92999.91;;;15.41;100.00
10606;BME280;5350;42.698;23.148;2022-11-20T10:22:26;93005.56;;;15.51;100.00
10606;BME280;5350;42.698;23.148;2022-11-20T10:25:00;93011.63;;;15.52;100.00
10606;BME280;5350;42.698;23.148;2022-11-20T10:27:48;93029.53;;;15.43;100.00
10606;BME280;5350;42.698;23.148;2022-11-20T10:30:20;93024.75;;;15.48;100.00
10606;BME280;5350;42.698;23.148;2022-11-20T10:32:54;93002.66;;;15.32;100.00
10606;BME280;5350;42.698;23.148;2022-11-20T10:35:24;93002.44;;;15.25;100.00
10606;BME280;5350;42.698;23.148;2022-11-20T10:37:58;92989.00;;;15.06;100.00
10606;BME280;5350;42.698;23.148;2022-11-20T10:40:31;92985.69;;;14.97;100.00
10606;BME280;5350;42.698;23.148;2022-11-20T10:43:03;92991.72;;;14.73;100.00
10606;BME280;5350;42.698;23.148;2022-11-20T10:45:42;92977.00;;;14.19;100.00
10606;BME280;5350;42.698;23.148;2022-11-20T10:48:20;93006.25;;;13.81;100.00
10606;BME280;5350;42.698;23.148;2022-11-20T10:50:57;93020.78;;;13.25;100.00
10606;BME280;5350;42.698;23.148;2022-11-20T10:53:38;93020.53;;;12.72;100.00
10606;BME280;5350;42.698;23.148;2022-11-20T10:56:10;93016.22;;;12.59;100.00
10606;BME280;5350;42.698;23.148;2022-11-20T10:58:44;92979.13;;;12.64;100.00
10606;BME280;5350;42.698;23.148;2022-11-20T11:01:15;92968.13;;;12.62;100.00
10606;BME280;5350;42.698;23.148;2022-11-20T11:03:44;92971.47;;;12.71;100.00
10606;BME280;5350;42.698;23.148;2022-11-20T11:06:19;92949.75;;;12.74;100.00
10606;BME280;5350;42.698;23.148;2022-11-20T11:08:57;92987.50;;;12.66;100.00
10606;BME280;5350;42.698;23.148;2022-11-20T11:11:27;92980.97;;;12.63;100.00
10606;BME280;5350;42.698;23.148;2022-11-20T11:14:05;92977.22;;;12.73;100.00
10606;BME280;5350;42.698;23.148;2022-11-20T11:16:32;92994.41;;;12.79;100.00
10606;BME280;5350;42.698;23.148;2022-11-20T11:19:12;92989.31;;;12.74;100.00
10606;BME280;5350;42.698;23.148;2022-11-20T11:21:45;92978.94;;;12.69;100.00
10606;BME280;5350;42.698;23.148;2022-11-20T11:24:20;92990.28;;;12.69;100.00
10606;BME280;5350;42.698;23.148;2022-11-20T11:26:56;92984.88;;;12.66;100.00
10606;BME280;5350;42.698;23.148;2022-11-20T11:29:23;93002.53;;;12.74;100.00
10606;BME280;5350;42.698;23.148;2022-11-20T11:32:03;93007.03;;;12.65;100.00
10606;BME280;5350;42.698;23.148;2022-11-20T11:34:32;93026.78;;;12.59;100.00
10606;BME280;5350;42.698;23.148;2022-11-20T11:36:59;93010.34;;;12.62;100.00
10606;BME280;5350;42.698;23.148;2022-11-20T11:39:27;93022.13;;;12.56;100.00
10606;BME280;5350;42.698;23.148;2022-11-20T11:41:56;93029.09;;;12.52;100.00
10606;BME280;5350;42.698;23.148;2022-11-20T11:44:27;93001.09;;;12.39;100.00
10606;BME280;5350;42.698;23.148;2022-11-20T11:47:22;93015.16;;;12.51;100.00
10606;BME280;5350;42.698;23.148;2022-11-20T11:50:07;93021.19;;;12.52;100.00
10606;BME280;5350;42.698;23.148;2022-11-20T11:52:43;93028.03;;;12.53;100.00
10606;BME280;5350;42.698;23.148;2022-11-20T11:55:14;93018.88;;;12.50;100.00
10606;BME280;5350;42.698;23.148;2022-11-20T11:57:46;93033.88;;;12.67;100.00
10606;BME280;5350;42.698;23.148;2022-11-20T12:00:17;93041.19;;;12.70;100.00
10606;BME280;5350;42.698;23.148;2022-11-20T12:02:53;93035.25;;;12.73;100.00
10606;BME280;5350;42.698;23.148;2022-11-20T12:05:24;93006.44;;;12.59;100.00
10606;BME280;5350;42.698;23.148;2022-11-20T12:07:56;93023.63;;;12.74;100.00
10606;BME280;5350;42.698;23.148;2022-11-20T12:10:37;93026.53;;;12.81;100.00
10606;BME280;5350;42.698;23.148;2022-11-20T12:13:15;93022.97;;;12.77;100.00
10606;BME280;5350;42.698;23.148;2022-11-20T12:15:46;93006.44;;;12.68;100.00
10606;BME280;5350;42.698;23.148;2022-11-20T12:18:16;93008.72;;;12.78;100.00
10606;BME280;5350;42.698;23.148;2022-11-20T12:20:53;93028.56;;;12.84;100.00
10606;BME280;5350;42.698;23.148;2022-11-20T12:23:28;93033.50;;;12.85;100.00
10606;BME280;5350;42.698;23.148;2022-11-20T12:26:02;93015.03;;;12.85;100.00
10606;BME280;5350;42.698;23.148;2022-11-20T12:28:47;93031.03;;;12.89;100.00
10606;BME280;5350;42.698;23.148;2022-11-20T12:31:30;93000.44;;;12.88;100.00
10606;BME280;5350;42.698;23.148;2022-11-20T12:34:14;92997.94;;;12.92;100.00
10606;BME280;5350;42.698;23.148;2022-11-20T12:36:52;92996.41;;;12.91;100.00
10606;BME280;5350;42.698;23.148;2022-11-20T12:39:34;92996.84;;;12.93;100.00
10606;BME280;5350;42.698;23.148;2022-11-20T12:42:19;93010.63;;;12.98;100.00
10606;BME280;5350;42.698;23.148;2022-11-20T12:45:18;92997.81;;;12.88;100.00
10606;BME280;5350;42.698;23.148;2022-11-20T12:51:12;92991.19;;;13.11;100.00
10606;BME280;5350;42.698;23.148;2022-11-20T12:53:49;92972.50;;;13.16;100.00
10606;BME280;5350;42.698;23.148;2022-11-20T12:56:28;92973.44;;;13.20;100.00
10606;BME280;5350;42.698;23.148;2022-11-20T12:59:07;92959.41;;;13.28;100.00
10606;BME280;5350;42.698;23.148;2022-11-20T13:01:40;92971.34;;;13.34;100.00
10606;BME280;5350;42.698;23.148;2022-11-20T13:04:23;92967.22;;;13.45;100.00
10606;BME280;5350;42.698;23.148;2022-11-20T13:06:55;92963.47;;;13.46;100.00
10606;BME280;5350;42.698;23.148;2022-11-20T13:09:25;92940.31;;;13.43;100.00